Startpagina
METAR-TAF:

METAR-TAF

Vliegvelden :

Cambridge, Engeland

breedte: 52-12N, lengte: 000-11E, hoogte: 15 m

Actueel weer

Dit bericht is 19 uur en het 36 minuten geleden gemaakt, om 16:50 UTC
Wind 8 kt uit het zuidzuidoosten, variërend tussen het oostzuidoosten en het zuiden
Temperatuur 19°C
Vochtigheid 46%
Druk 1025 hPa
Zicht 10 km of meer
geen wolken onder 1500 m en geen cumulonimbus

METAR: EGSC 091650Z 15008KT 110V170 CAVOK 19/07 Q1025

Tijdstip: 13:26 (12:26 UTC)

Verwachting

Dit bericht is 22 uur en het 32 minuten geleden gemaakt, om 13:54 UTC
Verwachting geldig van 09 om 15 UTC tot 09 om 19 UTC
Wind 5 kt uit het oostnoordoosten
Zicht 10 km of meer
geen wolken onder 1500 m en geen cumulonimbus
Kans 40%
van 09 om 15 UTC tot 09 om 19 UTC
Zicht: 8000 m

TAF: EGSC 091354Z 0915/0919 07005KT CAVOK PROB40 0915/0919 8000

Waarnemingen en weersverwachtingen van meer dan 4000 vliegvelden (METAR en TAF).

De beschikbare stations zijn de gele en rode punten op de kaart.

Ga met uw muis naar het station om de naam te zien.

Klik dan om waarnemingen en weersverwachtingen te zien.

kaart wijzigen: klik op de groene knoppen met een zwart kruis om in te zoomen, op de groene knop met een streepje om uit te zoomen of op de groene pijlen voor aangrenzende kaarten.


METAR-TAF: